createdAt,value
2023-01-18T00:01:21.905Z,-3.23
2023-01-18T00:03:49.919Z,-3.18
2023-01-18T00:06:18.170Z,-3.11
2023-01-18T00:08:46.102Z,-3.03
2023-01-18T00:11:17.203Z,-2.95
2023-01-18T00:13:45.757Z,-2.89
2023-01-18T00:16:20.091Z,-2.87
2023-01-18T00:18:56.964Z,-2.91
2023-01-18T00:21:27.737Z,-2.98
2023-01-18T00:23:56.860Z,-3.01
2023-01-18T00:26:24.872Z,-3.01
2023-01-18T00:28:56.359Z,-3.03
2023-01-18T00:31:24.261Z,-3.08
2023-01-18T00:33:52.283Z,-3.10
2023-01-18T00:36:20.325Z,-3.13
2023-01-18T00:38:51.788Z,-3.12
2023-01-18T00:41:21.684Z,-3.10
2023-01-18T00:43:50.353Z,-3.12
2023-01-18T00:46:24.285Z,-3.15
2023-01-18T00:48:52.577Z,-3.22
2023-01-18T00:51:23.687Z,-3.29
2023-01-18T00:53:52.080Z,-3.32
2023-01-18T00:56:22.635Z,-3.32
2023-01-18T00:58:51.014Z,-3.30
2023-01-18T01:01:19.088Z,-3.23
2023-01-18T01:04:06.014Z,-3.18
2023-01-18T01:06:44.672Z,-3.16
2023-01-18T01:09:18.267Z,-3.16
2023-01-18T01:12:06.449Z,-3.08
2023-01-18T01:14:55.628Z,-3.02
2023-01-18T01:17:42.108Z,-2.95
2023-01-18T01:20:29.673Z,-2.88
2023-01-18T01:23:16.270Z,-2.95
2023-01-18T01:26:02.830Z,-3.03
2023-01-18T01:28:30.732Z,-3.11
2023-01-18T01:31:00.898Z,-3.16
2023-01-18T01:33:30.613Z,-3.15
2023-01-18T01:36:01.537Z,-3.15
2023-01-18T01:38:30.669Z,-3.16
2023-01-18T01:41:01.854Z,-3.18
2023-01-18T01:43:51.322Z,-3.15
2023-01-18T01:46:47.154Z,-3.11
2023-01-18T01:49:19.889Z,-3.09
2023-01-18T01:51:52.893Z,-3.10
2023-01-18T01:54:28.940Z,-3.09
2023-01-18T01:57:20.077Z,-3.06
2023-01-18T01:59:59.535Z,-2.98
2023-01-18T02:02:29.540Z,-2.93
2023-01-18T02:04:59.639Z,-2.92
2023-01-18T02:07:28.954Z,-2.95
2023-01-18T02:09:59.124Z,-2.99
2023-01-18T02:12:29.332Z,-3.00
2023-01-18T02:14:59.546Z,-2.99
2023-01-18T02:18:05.827Z,-2.93
2023-01-18T02:20:52.695Z,-2.86
2023-01-18T02:23:30.702Z,-2.80
2023-01-18T02:26:33.867Z,-2.74
2023-01-18T02:29:13.986Z,-2.64
2023-01-18T02:32:08.843Z,-2.58
2023-01-18T02:34:52.173Z,-2.59
2023-01-18T02:37:26.016Z,-2.61
2023-01-18T02:40:14.145Z,-2.66
2023-01-18T02:43:03.672Z,-2.68
2023-01-18T02:45:57.996Z,-2.68
2023-01-18T02:48:33.321Z,-2.65
2023-01-18T02:51:01.151Z,-2.60
2023-01-18T02:53:30.272Z,-2.52
2023-01-18T02:56:11.423Z,-2.45
2023-01-18T02:58:48.880Z,-2.40
2023-01-18T03:01:34.173Z,-2.35
2023-01-18T03:04:14.030Z,-2.34
2023-01-18T03:06:48.490Z,-2.31
2023-01-18T03:09:18.634Z,-2.32
2023-01-18T03:11:57.826Z,-2.41
2023-01-18T03:15:13.083Z,-2.48
2023-01-18T03:17:59.513Z,-2.53
2023-01-18T03:20:33.055Z,-2.55
2023-01-18T03:23:32.363Z,-2.54
2023-01-18T03:26:03.386Z,-2.56
2023-01-18T03:28:55.348Z,-2.60
2023-01-18T03:32:01.260Z,-2.61
2023-01-18T03:34:38.657Z,-2.61
2023-01-18T03:37:19.441Z,-2.66
2023-01-18T03:39:53.702Z,-2.71
2023-01-18T03:42:29.421Z,-2.75
2023-01-18T03:45:08.769Z,-2.78
2023-01-18T03:47:37.536Z,-2.78
2023-01-18T03:50:05.859Z,-2.73
2023-01-18T03:52:45.209Z,-2.67
2023-01-18T03:55:28.991Z,-2.58
2023-01-18T03:58:06.518Z,-2.54
2023-01-18T04:00:34.359Z,-2.51
2023-01-18T04:03:02.669Z,-2.48
2023-01-18T04:05:30.841Z,-2.48
2023-01-18T04:07:58.689Z,-2.54
2023-01-18T04:10:26.849Z,-2.58
2023-01-18T04:12:54.821Z,-2.61
2023-01-18T04:15:22.895Z,-2.56
2023-01-18T04:17:53.474Z,-2.54
2023-01-18T04:20:22.287Z,-2.52
2023-01-18T04:22:54.662Z,-2.51
2023-01-18T04:25:22.615Z,-2.47
2023-01-18T04:27:50.628Z,-2.44
2023-01-18T04:30:18.772Z,-2.43
2023-01-18T04:32:46.722Z,-2.40
2023-01-18T04:35:15.083Z,-2.38
2023-01-18T04:37:42.927Z,-2.41
2023-01-18T04:40:11.533Z,-2.40
2023-01-18T04:42:39.580Z,-2.36
2023-01-18T04:45:08.123Z,-2.34
2023-01-18T04:47:35.953Z,-2.33
2023-01-18T04:50:04.107Z,-2.29
2023-01-18T04:52:33.424Z,-2.27
2023-01-18T04:55:01.418Z,-2.26
2023-01-18T04:57:29.351Z,-2.27
2023-01-18T04:59:57.283Z,-2.27
2023-01-18T05:02:25.195Z,-2.27
2023-01-18T05:04:53.288Z,-2.25
2023-01-18T05:07:25.322Z,-2.21
2023-01-18T05:09:53.283Z,-2.18
2023-01-18T05:12:21.209Z,-2.13
2023-01-18T05:14:49.230Z,-2.09
2023-01-18T05:17:17.039Z,-2.02
2023-01-18T05:19:46.829Z,-1.93
2023-01-18T05:22:14.634Z,-1.85
2023-01-18T05:24:42.548Z,-1.77
2023-01-18T05:27:11.949Z,-1.71
2023-01-18T05:29:39.833Z,-1.63
2023-01-18T05:32:07.824Z,-1.60
2023-01-18T05:34:35.803Z,-1.61
2023-01-18T05:37:04.776Z,-1.59
2023-01-18T05:39:32.762Z,-1.56
2023-01-18T05:42:00.553Z,-1.52
2023-01-18T05:44:28.970Z,-1.47
2023-01-18T05:46:57.961Z,-1.45
2023-01-18T05:49:25.932Z,-1.42
2023-01-18T05:51:53.891Z,-1.42
2023-01-18T05:54:21.928Z,-1.41
2023-01-18T05:56:49.767Z,-1.35
2023-01-18T05:59:17.733Z,-1.30
2023-01-18T06:01:45.605Z,-1.24
2023-01-18T06:04:13.699Z,-1.19
2023-01-18T06:06:41.791Z,-1.16
2023-01-18T06:09:09.665Z,-1.10
2023-01-18T06:11:37.498Z,-1.04
2023-01-18T06:14:05.541Z,-0.99
2023-01-18T06:16:33.390Z,-0.93
2023-01-18T06:19:01.452Z,-0.90
2023-01-18T06:21:29.307Z,-0.87
2023-01-18T06:23:57.254Z,-0.88
2023-01-18T06:26:25.216Z,-0.91
2023-01-18T06:28:53.634Z,-0.92
2023-01-18T06:31:21.495Z,-0.94
2023-01-18T06:33:49.677Z,-0.96
2023-01-18T06:36:17.481Z,-0.97
2023-01-18T06:38:45.394Z,-0.95
2023-01-18T06:41:13.408Z,-0.90
2023-01-18T06:43:41.714Z,-0.83
2023-01-18T06:46:11.625Z,-0.78
2023-01-18T06:48:39.581Z,-0.68
2023-01-18T06:51:07.641Z,-0.57
2023-01-18T06:53:37.695Z,-0.45
2023-01-18T06:56:10.456Z,-0.32
2023-01-18T06:58:38.470Z,-0.22
2023-01-18T07:01:06.970Z,-0.13
2023-01-18T07:03:35.200Z,-0.03
2023-01-18T07:06:04.462Z,0.05
2023-01-18T07:08:32.686Z,0.12
2023-01-18T07:11:08.240Z,0.19
2023-01-18T07:13:40.004Z,0.24
2023-01-18T07:16:09.364Z,0.31
2023-01-18T07:18:37.259Z,0.37
2023-01-18T07:21:10.204Z,0.45
2023-01-18T07:23:39.996Z,0.52
2023-01-18T07:26:17.140Z,0.60
2023-01-18T07:28:46.418Z,0.65
2023-01-18T07:31:15.597Z,0.68
2023-01-18T07:33:43.799Z,0.73
2023-01-18T07:36:11.958Z,0.78
2023-01-18T07:38:40.352Z,0.83
2023-01-18T07:41:14.511Z,0.86
2023-01-18T07:43:44.920Z,0.88
2023-01-18T07:46:16.981Z,0.91
2023-01-18T07:48:45.028Z,0.93
2023-01-18T07:51:13.374Z,0.94
2023-01-18T07:53:41.905Z,0.94
2023-01-18T07:56:13.821Z,0.92
2023-01-18T07:58:42.442Z,0.93
2023-01-18T08:01:16.166Z,0.93
2023-01-18T08:03:45.690Z,0.91
2023-01-18T08:06:13.925Z,0.90
2023-01-18T08:08:42.168Z,0.91
2023-01-18T08:11:11.302Z,0.91
2023-01-18T08:13:39.474Z,0.94
2023-01-18T08:16:09.541Z,0.97
2023-01-18T08:18:37.665Z,1.00
2023-01-18T08:21:11.050Z,1.03
2023-01-18T08:23:39.309Z,1.05
2023-01-18T08:26:09.099Z,1.08
2023-01-18T08:28:37.562Z,1.13
2023-01-18T08:31:07.503Z,1.17
2023-01-18T08:33:37.936Z,1.22
2023-01-18T08:36:10.548Z,1.24
2023-01-18T08:38:39.591Z,1.27
2023-01-18T08:41:07.679Z,1.29
2023-01-18T08:43:35.908Z,1.32
2023-01-18T08:46:04.156Z,1.33
2023-01-18T08:48:32.263Z,1.34
2023-01-18T08:51:02.241Z,1.37
2023-01-18T08:53:31.473Z,1.38
2023-01-18T08:55:59.273Z,1.40
2023-01-18T08:58:27.338Z,1.41
2023-01-18T09:00:55.145Z,1.40
2023-01-18T09:03:23.192Z,1.40
2023-01-18T09:05:51.593Z,1.41
2023-01-18T09:08:19.514Z,1.46
2023-01-18T09:10:47.502Z,1.46
2023-01-18T09:13:15.476Z,1.47
2023-01-18T09:15:43.687Z,1.49
2023-01-18T09:18:11.644Z,1.49
2023-01-18T09:20:39.763Z,1.52
2023-01-18T09:23:09.523Z,1.54
2023-01-18T09:25:37.815Z,1.55
2023-01-18T09:28:05.846Z,1.54
2023-01-18T09:30:34.084Z,1.55
2023-01-18T09:33:03.740Z,1.56
2023-01-18T09:35:33.101Z,1.57
2023-01-18T09:38:01.067Z,1.59
2023-01-18T09:40:45.005Z,1.58
2023-01-18T09:43:24.579Z,1.60
2023-01-18T09:45:53.587Z,1.63
2023-01-18T09:48:40.897Z,1.66
2023-01-18T09:51:20.515Z,1.68
2023-01-18T09:54:15.790Z,1.70
2023-01-18T09:57:04.222Z,1.71
2023-01-18T09:59:42.171Z,1.73
2023-01-18T10:02:24.375Z,1.76
2023-01-18T10:04:56.532Z,1.80
2023-01-18T10:07:27.337Z,1.78
2023-01-18T10:09:58.638Z,1.81
2023-01-18T10:12:32.533Z,1.81
2023-01-18T10:15:10.747Z,1.83
2023-01-18T10:17:41.952Z,1.86
2023-01-18T10:20:35.744Z,1.85
2023-01-18T10:23:13.677Z,1.84
2023-01-18T10:25:55.843Z,1.93
2023-01-18T10:29:00.946Z,1.95
2023-01-18T10:31:38.704Z,1.97
2023-01-18T10:34:34.673Z,2.00
2023-01-18T10:37:38.965Z,1.99
2023-01-18T10:40:10.280Z,1.98
2023-01-18T10:42:48.481Z,1.97
2023-01-18T10:45:22.881Z,1.97
2023-01-18T10:47:53.152Z,1.97
2023-01-18T10:50:34.373Z,1.94
2023-01-18T10:53:28.224Z,1.88
2023-01-18T10:56:06.854Z,1.86
2023-01-18T10:59:00.884Z,1.85
2023-01-18T11:01:30.454Z,1.82
2023-01-18T11:04:06.302Z,1.78
2023-01-18T11:06:53.692Z,1.73
2023-01-18T11:09:48.802Z,1.73
2023-01-18T11:12:42.309Z,1.75
2023-01-18T11:15:13.342Z,1.76
2023-01-18T11:17:50.413Z,1.79
2023-01-18T11:20:44.605Z,1.82
2023-01-18T11:23:37.655Z,1.78
2023-01-18T11:26:19.208Z,1.76
2023-01-18T11:29:12.552Z,1.74
2023-01-18T11:31:47.491Z,1.77
2023-01-18T11:34:34.309Z,1.78
2023-01-18T11:37:02.786Z,1.77
2023-01-18T11:39:33.000Z,1.76
2023-01-18T11:42:11.550Z,1.75
2023-01-18T11:44:54.566Z,1.77
2023-01-18T11:47:32.403Z,1.78
2023-01-18T11:50:23.971Z,1.77
2023-01-18T11:52:56.823Z,1.74
2023-01-18T11:55:56.075Z,1.74
2023-01-18T11:58:29.397Z,1.75
2023-01-18T12:00:57.352Z,1.77
2023-01-18T12:03:35.408Z,1.81
2023-01-18T12:06:11.063Z,1.85
2023-01-18T12:08:55.042Z,1.90
2023-01-18T12:12:09.837Z,1.95
2023-01-18T12:14:51.610Z,1.95
2023-01-18T12:17:38.293Z,1.87
2023-01-18T12:20:29.367Z,1.84
2023-01-18T12:23:19.038Z,1.82
2023-01-18T12:26:10.933Z,1.83
2023-01-18T12:28:51.795Z,1.85
2023-01-18T12:31:43.871Z,1.88
2023-01-18T12:34:22.395Z,1.88
2023-01-18T12:37:31.453Z,1.86
2023-01-18T12:40:28.699Z,1.85
2023-01-18T12:43:43.279Z,1.87
2023-01-18T12:46:26.534Z,1.86
2023-01-18T12:49:18.947Z,1.84
2023-01-18T12:52:03.131Z,1.86
2023-01-18T12:54:48.948Z,1.84
2023-01-18T12:57:18.470Z,1.81
2023-01-18T13:00:19.020Z,1.78
2023-01-18T13:02:51.893Z,1.80
2023-01-18T13:05:52.638Z,1.83
2023-01-18T13:08:53.476Z,1.84
2023-01-18T13:11:31.011Z,1.83
2023-01-18T13:14:21.673Z,1.86
2023-01-18T13:17:17.117Z,1.87
2023-01-18T13:19:54.727Z,1.84
2023-01-18T13:23:00.001Z,1.83
2023-01-18T13:25:52.860Z,1.87
2023-01-18T13:28:24.017Z,1.87
2023-01-18T13:31:00.713Z,1.87
2023-01-18T13:33:32.830Z,1.89
2023-01-18T13:36:14.399Z,1.94
2023-01-18T13:38:56.252Z,1.97
2023-01-18T13:41:29.871Z,2.01
2023-01-18T13:43:57.787Z,2.03
2023-01-18T13:46:26.623Z,2.05
2023-01-18T13:49:36.177Z,2.07
2023-01-18T13:52:35.787Z,2.07
2023-01-18T13:55:03.867Z,2.09
2023-01-18T13:57:34.403Z,2.07
2023-01-18T14:00:04.234Z,2.05
2023-01-18T14:02:42.514Z,2.03
2023-01-18T14:05:25.650Z,1.99
2023-01-18T14:08:01.057Z,1.98
2023-01-18T14:10:33.344Z,2.02
2023-01-18T14:13:05.069Z,2.02
2023-01-18T14:15:42.070Z,2.04
2023-01-18T14:18:24.946Z,2.07
2023-01-18T14:21:21.183Z,2.10
2023-01-18T14:23:58.046Z,2.09
2023-01-18T14:26:31.021Z,2.07
2023-01-18T14:29:14.282Z,2.07
2023-01-18T14:31:53.569Z,2.11
2023-01-18T14:34:30.786Z,2.13
2023-01-18T14:36:59.268Z,2.10
2023-01-18T14:39:30.121Z,2.09
2023-01-18T14:42:02.146Z,2.06
2023-01-18T14:44:58.642Z,2.03
2023-01-18T14:47:32.193Z,2.01
2023-01-18T14:50:04.315Z,2.03
2023-01-18T14:52:34.587Z,2.02
2023-01-18T14:55:02.735Z,1.93
2023-01-18T14:57:30.747Z,1.87
2023-01-18T15:00:16.572Z,1.87
2023-01-18T15:02:44.592Z,1.94
2023-01-18T15:05:14.587Z,1.97
2023-01-18T15:07:56.019Z,1.99
2023-01-18T15:10:24.979Z,1.98
2023-01-18T15:12:57.983Z,1.99
2023-01-18T15:15:31.094Z,1.98
2023-01-18T15:18:18.918Z,1.97
2023-01-18T15:21:03.380Z,1.96
2023-01-18T15:23:36.441Z,1.92
2023-01-18T15:26:04.707Z,1.88
2023-01-18T15:28:36.744Z,1.81
2023-01-18T15:31:22.845Z,1.78
2023-01-18T15:33:50.930Z,1.75
2023-01-18T15:36:19.677Z,1.77
2023-01-18T15:38:47.707Z,1.76
2023-01-18T15:41:15.775Z,1.75
2023-01-18T15:43:46.204Z,1.75
2023-01-18T15:46:17.123Z,1.78
2023-01-18T15:48:49.884Z,1.81
2023-01-18T15:51:22.590Z,1.85
2023-01-18T15:53:56.606Z,1.82
2023-01-18T15:56:32.762Z,1.77
2023-01-18T15:59:06.594Z,1.76
2023-01-18T16:01:34.581Z,1.72
2023-01-18T16:04:19.085Z,1.68
2023-01-18T16:06:47.083Z,1.67
2023-01-18T16:09:16.146Z,1.68
2023-01-18T16:11:52.793Z,1.69
2023-01-18T16:14:31.401Z,1.70
2023-01-18T16:17:10.227Z,1.70
2023-01-18T16:19:48.469Z,1.68
2023-01-18T16:22:23.964Z,1.65
2023-01-18T16:24:56.246Z,1.67
2023-01-18T16:27:26.411Z,1.67
2023-01-18T16:30:00.049Z,1.64
2023-01-18T16:32:34.533Z,1.59
2023-01-18T16:35:13.137Z,1.54
2023-01-18T16:37:44.473Z,1.52
2023-01-18T16:40:21.304Z,1.47
2023-01-18T16:42:57.202Z,1.49
2023-01-18T16:45:26.104Z,1.53
2023-01-18T16:47:53.911Z,1.60
2023-01-18T16:50:22.206Z,1.62
2023-01-18T16:52:50.304Z,1.57
2023-01-18T16:55:18.648Z,1.50
2023-01-18T16:57:46.785Z,1.47
2023-01-18T17:00:20.875Z,1.43
2023-01-18T17:02:49.772Z,1.41
2023-01-18T17:05:18.688Z,1.40
2023-01-18T17:07:46.850Z,1.39
2023-01-18T17:10:20.187Z,1.42
2023-01-18T17:12:48.049Z,1.46
2023-01-18T17:15:16.652Z,1.51
2023-01-18T17:17:45.831Z,1.57
2023-01-18T17:20:19.904Z,1.58
2023-01-18T17:22:47.892Z,1.56
2023-01-18T17:25:15.750Z,1.53
2023-01-18T17:27:44.576Z,1.51
2023-01-18T17:30:16.160Z,1.47
2023-01-18T17:32:45.909Z,1.49
2023-01-18T17:35:16.627Z,1.39
2023-01-18T17:37:44.497Z,1.33
2023-01-18T17:40:22.798Z,1.26
2023-01-18T17:42:53.299Z,1.19
2023-01-18T17:45:21.204Z,1.14
2023-01-18T17:47:52.267Z,1.08
2023-01-18T17:50:24.941Z,0.99
2023-01-18T17:52:54.628Z,0.95
2023-01-18T17:55:27.464Z,0.93
2023-01-18T17:57:58.854Z,0.92
2023-01-18T18:00:26.939Z,0.96
2023-01-18T18:02:57.363Z,1.03
2023-01-18T18:05:25.657Z,1.07
2023-01-18T18:07:53.624Z,1.00
2023-01-18T18:10:21.745Z,0.92
2023-01-18T18:12:49.551Z,0.90
2023-01-18T18:15:17.676Z,0.91
2023-01-18T18:17:45.547Z,0.89
2023-01-18T18:20:14.190Z,0.86
2023-01-18T18:22:41.968Z,0.87
2023-01-18T18:25:10.051Z,0.93
2023-01-18T18:27:45.320Z,0.96
2023-01-18T18:30:15.633Z,0.95
2023-01-18T18:32:43.569Z,0.95
2023-01-18T18:35:24.315Z,0.97
2023-01-18T18:37:54.175Z,0.99
2023-01-18T18:40:23.593Z,1.06
2023-01-18T18:43:07.459Z,1.17
2023-01-18T18:45:35.805Z,1.28
2023-01-18T18:48:04.482Z,1.28
2023-01-18T18:50:32.671Z,1.28
2023-01-18T18:53:00.929Z,1.27
2023-01-18T18:55:29.192Z,1.30
2023-01-18T18:57:57.057Z,1.36
2023-01-18T19:00:25.412Z,1.38
2023-01-18T19:03:01.128Z,1.37
2023-01-18T19:05:30.928Z,1.43
2023-01-18T19:07:59.775Z,1.48
2023-01-18T19:10:30.494Z,1.53
2023-01-18T19:12:59.688Z,1.57
2023-01-18T19:15:27.972Z,1.60
2023-01-18T19:17:57.989Z,1.60
2023-01-18T19:20:25.980Z,1.61
2023-01-18T19:22:54.138Z,1.57
2023-01-18T19:25:22.005Z,1.49
2023-01-18T19:27:49.821Z,1.39
2023-01-18T19:30:20.800Z,1.33
2023-01-18T19:32:50.979Z,1.31
2023-01-18T19:35:20.580Z,1.26
2023-01-18T19:37:49.736Z,1.18
2023-01-18T19:40:17.811Z,1.18
2023-01-18T19:42:56.059Z,1.22
2023-01-18T19:45:28.251Z,1.27
2023-01-18T19:47:59.803Z,1.30
2023-01-18T19:50:29.848Z,1.34
2023-01-18T19:52:58.288Z,1.37
2023-01-18T19:55:26.654Z,1.39
2023-01-18T19:57:56.347Z,1.42
2023-01-18T20:00:24.166Z,1.44
2023-01-18T20:02:52.045Z,1.49
2023-01-18T20:05:20.573Z,1.50
2023-01-18T20:07:48.663Z,1.57
2023-01-18T20:10:20.279Z,1.62
2023-01-18T20:12:49.316Z,1.63
2023-01-18T20:15:18.669Z,1.63
2023-01-18T20:17:46.621Z,1.65
2023-01-18T20:20:24.310Z,1.64
2023-01-18T20:23:03.434Z,1.61
2023-01-18T20:25:33.102Z,1.62
2023-01-18T20:28:01.422Z,1.65
2023-01-18T20:30:29.401Z,1.65
2023-01-18T20:32:57.855Z,1.63
2023-01-18T20:35:27.576Z,1.65
2023-01-18T20:37:56.438Z,1.71
2023-01-18T20:40:24.729Z,1.72
2023-01-18T20:42:52.871Z,1.69
2023-01-18T20:45:20.931Z,1.62
2023-01-18T20:47:48.989Z,1.60
2023-01-18T20:50:17.887Z,1.58
2023-01-18T20:52:45.915Z,1.55
2023-01-18T20:55:14.863Z,1.49
2023-01-18T20:57:43.081Z,1.47
2023-01-18T21:00:12.865Z,1.46
2023-01-18T21:02:42.153Z,1.49
2023-01-18T21:05:10.660Z,1.54
2023-01-18T21:07:40.203Z,1.61
2023-01-18T21:10:10.921Z,1.63
2023-01-18T21:12:38.938Z,1.65
2023-01-18T21:15:09.200Z,1.62
2023-01-18T21:17:37.072Z,1.62
2023-01-18T21:20:05.454Z,1.66
2023-01-18T21:22:33.486Z,1.63
2023-01-18T21:25:01.538Z,1.58
2023-01-18T21:27:33.232Z,1.54
2023-01-18T21:30:01.196Z,1.52
2023-01-18T21:32:29.313Z,1.56
2023-01-18T21:34:57.279Z,1.57
2023-01-18T21:37:25.134Z,1.60
2023-01-18T21:39:53.284Z,1.58
2023-01-18T21:42:40.106Z,1.58
2023-01-18T21:45:29.108Z,1.60
2023-01-18T21:47:58.621Z,1.64
2023-01-18T21:50:45.473Z,1.63
2023-01-18T21:53:34.944Z,1.63
2023-01-18T21:56:03.716Z,1.63
2023-01-18T21:58:50.122Z,1.63
2023-01-18T22:01:23.866Z,1.60
2023-01-18T22:04:11.841Z,1.53
2023-01-18T22:06:39.942Z,1.52
2023-01-18T22:09:08.325Z,1.49
2023-01-18T22:11:36.296Z,1.47
2023-01-18T22:14:05.678Z,1.46
2023-01-18T22:16:34.061Z,1.45
2023-01-18T22:19:04.877Z,1.48
2023-01-18T22:21:33.681Z,1.50
2023-01-18T22:24:01.954Z,1.50
2023-01-18T22:26:30.487Z,1.47
2023-01-18T22:28:58.541Z,1.44
2023-01-18T22:31:27.842Z,1.40
2023-01-18T22:33:57.404Z,1.35
2023-01-18T22:36:25.412Z,1.32
2023-01-18T22:38:54.092Z,1.28
2023-01-18T22:41:25.259Z,1.26
2023-01-18T22:43:54.644Z,1.22
2023-01-18T22:46:24.001Z,1.18
2023-01-18T22:48:52.867Z,1.19
2023-01-18T22:51:23.422Z,1.21
2023-01-18T22:53:52.039Z,1.19
2023-01-18T22:56:22.358Z,1.18
2023-01-18T22:58:50.972Z,1.22
2023-01-18T23:01:30.954Z,1.27
2023-01-18T23:04:01.552Z,1.30
2023-01-18T23:06:41.948Z,1.30
2023-01-18T23:09:10.473Z,1.34
2023-01-18T23:11:39.095Z,1.38
2023-01-18T23:14:26.131Z,1.40
2023-01-18T23:17:12.866Z,1.39
2023-01-18T23:19:40.963Z,1.38
2023-01-18T23:22:08.935Z,1.37
2023-01-18T23:24:37.745Z,1.39
2023-01-18T23:27:07.725Z,1.41
2023-01-18T23:29:35.724Z,1.39
2023-01-18T23:32:03.971Z,1.35
2023-01-18T23:34:32.169Z,1.31
2023-01-18T23:37:00.145Z,1.31
2023-01-18T23:39:46.480Z,1.27
2023-01-18T23:42:33.337Z,1.26
2023-01-18T23:45:19.891Z,1.27
2023-01-18T23:48:06.222Z,1.26
2023-01-18T23:50:52.909Z,1.25
2023-01-18T23:53:39.371Z,1.25
2023-01-18T23:56:07.527Z,1.24
2023-01-18T23:58:35.503Z,1.23
